createdAt,value
2019-05-20T00:00:47.197Z,3.67
2019-05-20T00:03:13.566Z,4.40
2019-05-20T00:05:39.937Z,3.77
2019-05-20T00:08:06.282Z,3.23
2019-05-20T00:10:32.580Z,4.53
2019-05-20T00:12:58.734Z,3.67
2019-05-20T00:15:25.293Z,3.97
2019-05-20T00:17:51.798Z,3.40
2019-05-20T00:20:18.106Z,4.40
2019-05-20T00:22:44.390Z,3.93
2019-05-20T00:25:10.974Z,5.40
2019-05-20T00:27:37.131Z,4.43
2019-05-20T00:30:03.903Z,8.23
2019-05-20T00:32:40.800Z,4.33
2019-05-20T00:34:58.287Z,4.43
2019-05-20T00:37:24.667Z,5.33
2019-05-20T00:39:50.979Z,4.30
2019-05-20T00:42:17.680Z,4.10
2019-05-20T00:44:43.843Z,5.20
2019-05-20T00:47:10.246Z,5.13
2019-05-20T00:49:36.441Z,4.77
2019-05-20T00:52:02.970Z,5.63
2019-05-20T00:54:32.684Z,4.73
2019-05-20T00:56:58.831Z,5.77
2019-05-20T00:59:25.612Z,4.67
2019-05-20T01:01:51.926Z,4.83
2019-05-20T01:04:18.272Z,5.00
2019-05-20T01:06:44.813Z,4.83
2019-05-20T01:09:11.087Z,7.73
2019-05-20T01:11:37.809Z,6.20
2019-05-20T01:14:04.409Z,5.57
2019-05-20T01:16:30.596Z,5.27
2019-05-20T01:18:56.924Z,5.87
2019-05-20T01:21:23.230Z,5.40
2019-05-20T01:23:49.498Z,6.27
2019-05-20T01:26:15.805Z,4.70
2019-05-20T01:28:42.070Z,6.20
2019-05-20T01:31:08.218Z,4.63
2019-05-20T01:33:34.404Z,4.97
2019-05-20T01:36:00.662Z,4.50
2019-05-20T01:38:28.898Z,5.73
2019-05-20T01:40:55.323Z,6.37
2019-05-20T01:43:21.583Z,5.30
2019-05-20T01:45:47.968Z,5.23
2019-05-20T01:48:14.258Z,7.87
2019-05-20T01:50:40.637Z,6.57
2019-05-20T01:53:06.775Z,6.00
2019-05-20T01:55:33.258Z,5.00
2019-05-20T01:57:59.410Z,5.57
2019-05-20T02:00:25.806Z,7.67
2019-05-20T02:02:53.050Z,6.37
2019-05-20T02:05:19.366Z,5.77
2019-05-20T02:07:45.502Z,8.40
2019-05-20T02:10:12.086Z,5.97
2019-05-20T02:12:38.336Z,7.80
2019-05-20T02:15:24.257Z,7.17
2019-05-20T02:17:50.766Z,7.03
2019-05-20T02:20:17.009Z,6.57
2019-05-20T02:22:43.304Z,6.43
2019-05-20T02:25:09.637Z,7.40
2019-05-20T02:27:35.914Z,7.17
2019-05-20T02:30:02.278Z,6.87
2019-05-20T02:32:28.510Z,6.30
2019-05-20T02:34:54.650Z,7.03
2019-05-20T02:37:20.960Z,7.27
2019-05-20T02:39:47.200Z,8.20
2019-05-20T02:42:13.557Z,7.57
2019-05-20T02:44:39.895Z,7.27
2019-05-20T02:47:06.195Z,6.50
2019-05-20T02:49:32.426Z,8.17
2019-05-20T02:51:58.927Z,7.97
2019-05-20T02:54:25.163Z,6.10
2019-05-20T02:56:51.542Z,7.13
2019-05-20T02:59:18.122Z,7.27
2019-05-20T03:01:44.415Z,8.40
2019-05-20T03:04:12.851Z,7.73
2019-05-20T03:06:38.945Z,6.60
2019-05-20T03:09:05.414Z,8.80
2019-05-20T03:11:31.547Z,6.87
2019-05-20T03:13:57.896Z,8.83
2019-05-20T03:16:24.158Z,7.80
2019-05-20T03:18:50.798Z,7.63
2019-05-20T03:21:16.969Z,6.93
2019-05-20T03:23:44.354Z,8.53
2019-05-20T03:26:10.926Z,8.17
2019-05-20T03:28:37.150Z,7.63
2019-05-20T03:31:03.427Z,7.37
2019-05-20T03:33:29.751Z,7.50
2019-05-20T03:35:56.123Z,6.83
2019-05-20T03:38:24.706Z,7.53
2019-05-20T03:40:51.033Z,9.57
2019-05-20T03:43:17.349Z,11.17
2019-05-20T03:45:43.701Z,9.73
2019-05-20T03:48:10.923Z,8.00
2019-05-20T03:50:37.179Z,7.87
2019-05-20T03:53:03.785Z,10.53
2019-05-20T03:55:30.033Z,8.03
2019-05-20T03:57:56.484Z,6.90
2019-05-20T04:00:37.217Z,7.10
2019-05-20T04:03:03.655Z,9.87
2019-05-20T04:05:29.945Z,9.23
2019-05-20T04:07:56.689Z,9.67
2019-05-20T04:10:23.276Z,7.43
2019-05-20T04:12:49.650Z,8.83
2019-05-20T04:15:16.050Z,7.47
2019-05-20T04:17:42.312Z,8.40
2019-05-20T04:20:09.648Z,9.10
2019-05-20T04:22:35.918Z,9.33
2019-05-20T04:25:02.822Z,7.97
2019-05-20T04:27:29.307Z,8.40
2019-05-20T04:29:55.466Z,8.77
2019-05-20T04:32:21.710Z,8.40
2019-05-20T04:34:47.957Z,8.77
2019-05-20T04:37:14.202Z,7.63
2019-05-20T04:39:40.463Z,6.87
2019-05-20T04:42:07.195Z,7.33
2019-05-20T04:44:33.559Z,9.23
2019-05-20T04:46:59.943Z,9.33
2019-05-20T04:49:26.197Z,8.50
2019-05-20T04:51:52.803Z,9.43
2019-05-20T04:54:19.133Z,9.70
2019-05-20T04:56:45.288Z,9.47
2019-05-20T04:59:11.570Z,7.07
2019-05-20T05:01:37.836Z,8.80
2019-05-20T05:04:04.303Z,9.70
2019-05-20T05:06:30.547Z,10.33
2019-05-20T05:08:56.814Z,8.73
2019-05-20T05:11:23.061Z,8.03
2019-05-20T05:13:49.310Z,8.63
2019-05-20T05:16:15.538Z,7.53
2019-05-20T05:18:41.815Z,8.80
2019-05-20T05:21:08.505Z,10.43
2019-05-20T05:23:36.978Z,11.53
2019-05-20T05:26:03.303Z,9.90
2019-05-20T05:28:29.686Z,11.17
2019-05-20T05:30:56.026Z,14.57
2019-05-20T05:33:22.266Z,8.93
2019-05-20T05:35:53.110Z,13.33
2019-05-20T05:38:17.558Z,9.43
2019-05-20T05:40:43.738Z,8.20
2019-05-20T05:43:10.028Z,10.67
2019-05-20T05:45:36.275Z,9.27
2019-05-20T05:48:02.684Z,7.17
2019-05-20T05:50:29.676Z,8.30
2019-05-20T05:52:56.011Z,10.30
2019-05-20T05:55:22.278Z,7.57
2019-05-20T05:57:48.595Z,12.07
2019-05-20T06:00:15.019Z,10.63
2019-05-20T06:02:41.351Z,9.47
2019-05-20T06:05:08.111Z,10.50
2019-05-20T06:07:34.377Z,11.57
2019-05-20T06:10:00.692Z,9.50
2019-05-20T06:12:26.969Z,13.40
2019-05-20T06:14:53.754Z,11.30
2019-05-20T06:17:20.175Z,12.83
2019-05-20T06:19:46.482Z,11.13
2019-05-20T06:22:14.614Z,11.27
2019-05-20T06:24:41.144Z,10.23
2019-05-20T06:27:07.462Z,11.93
2019-05-20T06:29:33.746Z,10.33
2019-05-20T06:32:00.051Z,12.60
2019-05-20T06:34:26.335Z,11.90
2019-05-20T06:36:54.865Z,13.57
2019-05-20T06:39:21.098Z,11.30
2019-05-20T06:41:47.378Z,10.07
2019-05-20T06:44:13.614Z,11.70
2019-05-20T06:46:40.254Z,15.67
2019-05-20T06:49:06.499Z,12.03
2019-05-20T06:51:32.782Z,10.97
2019-05-20T06:54:01.027Z,11.07
2019-05-20T06:56:27.299Z,12.60
2019-05-20T06:58:53.445Z,10.63
2019-05-20T07:01:19.754Z,11.63
2019-05-20T07:03:46.137Z,11.63
2019-05-20T07:06:12.389Z,9.77
2019-05-20T07:08:38.654Z,12.30
2019-05-20T07:11:04.902Z,12.67
2019-05-20T07:13:31.206Z,14.40
2019-05-20T07:15:57.512Z,14.73
2019-05-20T07:18:23.754Z,13.83
2019-05-20T07:20:50.103Z,13.93
2019-05-20T07:23:16.415Z,12.83
2019-05-20T07:25:42.711Z,11.97
2019-05-20T07:28:09.061Z,11.50
2019-05-20T07:30:35.362Z,13.47
2019-05-20T07:33:01.610Z,13.90
2019-05-20T07:35:30.728Z,14.40
2019-05-20T07:37:56.287Z,12.90
2019-05-20T07:40:29.579Z,14.50
2019-05-20T07:42:56.152Z,14.13
2019-05-20T07:45:22.485Z,12.43
2019-05-20T07:47:48.898Z,11.43
2019-05-20T07:50:15.188Z,13.17
2019-05-20T07:52:41.520Z,11.77
2019-05-20T07:55:08.307Z,12.30
2019-05-20T07:57:35.761Z,13.47
2019-05-20T08:00:02.562Z,15.07
2019-05-20T08:02:31.071Z,12.33
2019-05-20T08:04:58.448Z,10.43
2019-05-20T08:07:35.712Z,9.73
2019-05-20T08:09:53.308Z,8.87
2019-05-20T08:12:19.575Z,9.90
2019-05-20T08:14:46.118Z,8.30
2019-05-20T08:17:12.421Z,7.57
2019-05-20T08:19:38.798Z,9.40
2019-05-20T08:22:05.095Z,9.37
2019-05-20T08:24:31.406Z,9.37
2019-05-20T08:26:57.694Z,9.00
2019-05-20T08:29:24.059Z,12.03
2019-05-20T08:31:50.314Z,11.70
2019-05-20T08:34:16.737Z,10.50
2019-05-20T08:36:43.087Z,7.43
2019-05-20T08:39:09.618Z,7.50
2019-05-20T08:41:35.954Z,8.03
2019-05-20T08:44:02.662Z,8.40
2019-05-20T08:46:28.948Z,7.20
2019-05-20T08:48:55.222Z,8.73
2019-05-20T08:51:21.548Z,8.83
2019-05-20T08:53:48.145Z,10.77
2019-05-20T08:56:14.443Z,10.70
2019-05-20T08:58:40.619Z,8.00
2019-05-20T09:01:07.667Z,6.03
2019-05-20T09:03:35.083Z,9.20
2019-05-20T09:06:01.529Z,8.10
2019-05-20T09:08:27.965Z,6.80
2019-05-20T09:10:54.304Z,7.87
2019-05-20T09:13:20.459Z,6.40
2019-05-20T09:15:46.941Z,10.00
2019-05-20T09:18:13.306Z,7.93
2019-05-20T09:20:39.812Z,6.47
2019-05-20T09:23:06.212Z,8.53
2019-05-20T09:25:32.644Z,7.80
2019-05-20T09:27:59.254Z,8.23
2019-05-20T09:30:25.631Z,8.97
2019-05-20T09:32:52.023Z,6.67
2019-05-20T09:35:18.450Z,7.63
2019-05-20T09:37:44.734Z,9.73
2019-05-20T09:40:14.067Z,7.93
2019-05-20T09:42:41.187Z,9.17
2019-05-20T09:45:07.940Z,7.30
2019-05-20T09:47:34.231Z,8.90
2019-05-20T09:50:00.592Z,7.80
2019-05-20T09:52:27.099Z,9.90
2019-05-20T09:54:53.248Z,11.60
2019-05-20T09:57:19.658Z,7.93
2019-05-20T09:59:45.846Z,7.97
2019-05-20T10:02:12.102Z,7.53
2019-05-20T10:04:38.350Z,7.10
2019-05-20T10:07:04.601Z,8.20
2019-05-20T10:09:30.943Z,8.33
2019-05-20T10:11:57.213Z,8.83
2019-05-20T10:14:23.881Z,10.13
2019-05-20T10:16:50.177Z,8.00
2019-05-20T10:19:16.423Z,10.93
2019-05-20T10:21:43.272Z,9.83
2019-05-20T10:24:09.600Z,7.40
2019-05-20T10:26:35.948Z,7.80
2019-05-20T10:29:02.272Z,8.77
2019-05-20T10:31:28.731Z,12.47
2019-05-20T10:33:55.190Z,9.53
2019-05-20T10:36:21.486Z,10.17
2019-05-20T10:38:58.597Z,9.57
2019-05-20T10:41:15.758Z,10.63
2019-05-20T10:43:42.005Z,8.73
2019-05-20T10:46:08.361Z,7.77
2019-05-20T10:48:34.821Z,8.67
2019-05-20T10:51:00.987Z,8.53
2019-05-20T10:53:28.403Z,8.60
2019-05-20T10:55:55.079Z,7.83
2019-05-20T10:58:21.477Z,10.07
2019-05-20T11:01:01.918Z,9.50
2019-05-20T11:03:16.057Z,10.33
2019-05-20T11:05:42.478Z,9.97
2019-05-20T11:08:08.640Z,9.53
2019-05-20T11:10:34.870Z,9.40
2019-05-20T11:13:01.303Z,10.50
2019-05-20T11:15:27.731Z,10.23
2019-05-20T11:17:54.015Z,12.97
2019-05-20T11:20:21.029Z,10.40
2019-05-20T11:22:47.178Z,9.90
2019-05-20T11:25:13.476Z,12.00
2019-05-20T11:27:40.294Z,9.20
2019-05-20T11:30:06.861Z,9.60
2019-05-20T11:32:33.189Z,11.73
2019-05-20T11:34:59.701Z,12.37
2019-05-20T11:37:26.249Z,11.73
2019-05-20T11:39:52.507Z,13.67
2019-05-20T11:42:18.826Z,15.40
2019-05-20T11:44:45.082Z,12.27
2019-05-20T11:47:11.385Z,16.60
2019-05-20T11:49:37.547Z,14.93
2019-05-20T11:52:04.300Z,15.27
2019-05-20T11:54:30.704Z,15.43
2019-05-20T11:56:57.083Z,14.07
2019-05-20T11:59:23.362Z,15.60
2019-05-20T12:01:49.605Z,15.23
2019-05-20T12:04:16.883Z,18.50
2019-05-20T12:06:43.023Z,15.77
2019-05-20T12:09:09.434Z,15.87
2019-05-20T12:11:35.854Z,14.67
2019-05-20T12:14:02.241Z,15.77
2019-05-20T12:16:28.506Z,15.10
2019-05-20T12:18:54.732Z,13.87
2019-05-20T12:21:21.182Z,14.90
2019-05-20T12:23:47.579Z,11.37
2019-05-20T12:26:14.250Z,10.27
2019-05-20T12:28:40.549Z,14.37
2019-05-20T12:31:06.987Z,13.13
2019-05-20T12:33:33.318Z,13.17
2019-05-20T12:35:59.646Z,11.10
2019-05-20T12:38:26.022Z,15.47
2019-05-20T12:40:53.435Z,12.20
2019-05-20T12:43:19.891Z,13.57
2019-05-20T12:45:47.333Z,12.50
2019-05-20T12:48:13.631Z,11.07
2019-05-20T12:50:39.901Z,11.10
2019-05-20T12:53:06.358Z,12.13
2019-05-20T12:55:33.214Z,10.67
2019-05-20T12:57:59.596Z,11.87
2019-05-20T13:00:25.945Z,14.07
2019-05-20T13:02:52.112Z,13.10
2019-05-20T13:05:18.260Z,15.00
2019-05-20T13:07:44.596Z,14.63
2019-05-20T13:10:27.748Z,12.10
2019-05-20T13:12:40.482Z,14.60
2019-05-20T13:15:07.476Z,13.10
2019-05-20T13:17:33.848Z,13.10
2019-05-20T13:20:00.226Z,11.90
2019-05-20T13:22:26.484Z,11.70
2019-05-20T13:24:52.627Z,11.20
2019-05-20T13:27:18.870Z,8.03
2019-05-20T13:29:45.007Z,11.00
2019-05-20T13:32:11.319Z,11.93
2019-05-20T13:34:37.570Z,8.70
2019-05-20T13:37:03.836Z,6.83
2019-05-20T13:39:29.986Z,9.20
2019-05-20T13:41:59.416Z,10.03
2019-05-20T13:44:25.742Z,7.83
2019-05-20T13:46:52.030Z,8.80
2019-05-20T13:49:18.281Z,7.10
2019-05-20T13:51:44.894Z,8.33
2019-05-20T13:54:11.895Z,8.57
2019-05-20T13:56:39.210Z,7.73
2019-05-20T13:59:05.518Z,6.93
2019-05-20T14:01:34.031Z,7.27
2019-05-20T14:04:00.166Z,6.27
2019-05-20T14:06:27.578Z,7.17
2019-05-20T14:08:54.281Z,5.90
2019-05-20T14:11:33.759Z,7.87
2019-05-20T14:13:48.652Z,11.77
2019-05-20T14:16:15.278Z,10.37
2019-05-20T14:18:41.836Z,8.80
2019-05-20T14:21:08.100Z,8.27
2019-05-20T14:23:34.359Z,10.27
2019-05-20T14:26:00.700Z,8.13
2019-05-20T14:28:27.118Z,10.37
2019-05-20T14:30:53.357Z,10.17
2019-05-20T14:33:19.747Z,10.07
2019-05-20T14:35:46.657Z,10.13
2019-05-20T14:38:12.853Z,8.10
2019-05-20T14:40:39.131Z,9.13
2019-05-20T14:43:05.604Z,8.33
2019-05-20T14:45:31.987Z,7.93
2019-05-20T14:47:58.307Z,11.37
2019-05-20T14:50:24.884Z,9.87
2019-05-20T14:52:51.417Z,10.03
2019-05-20T14:55:18.083Z,7.30
2019-05-20T14:57:44.319Z,9.17
2019-05-20T15:00:11.171Z,8.00
2019-05-20T15:02:37.801Z,9.93
2019-05-20T15:05:04.458Z,8.53
2019-05-20T15:07:31.473Z,12.20
2019-05-20T15:09:58.148Z,9.43
2019-05-20T15:12:24.400Z,10.50
2019-05-20T15:14:50.787Z,9.47
2019-05-20T15:17:17.048Z,7.67
2019-05-20T15:19:43.351Z,16.13
2019-05-20T15:22:09.641Z,13.07
2019-05-20T15:24:36.015Z,9.00
2019-05-20T15:27:02.594Z,10.30
2019-05-20T15:29:29.059Z,11.10
2019-05-20T15:31:55.383Z,8.63
2019-05-20T15:34:21.711Z,8.97
2019-05-20T15:36:47.920Z,9.43
2019-05-20T15:39:14.190Z,7.03
2019-05-20T15:41:40.529Z,7.10
2019-05-20T15:44:06.935Z,6.83
2019-05-20T15:46:33.179Z,15.30
2019-05-20T15:48:59.419Z,10.27
2019-05-20T15:51:25.581Z,6.93
2019-05-20T15:53:52.066Z,6.97
2019-05-20T15:56:18.419Z,6.40
2019-05-20T15:58:46.125Z,6.60
2019-05-20T16:01:12.450Z,8.03
2019-05-20T16:03:38.611Z,8.30
2019-05-20T16:06:04.852Z,6.20
2019-05-20T16:08:31.187Z,7.00
2019-05-20T16:10:57.506Z,7.10
2019-05-20T16:13:24.011Z,11.57
2019-05-20T16:15:50.511Z,6.20
2019-05-20T16:18:16.803Z,6.87
2019-05-20T16:20:43.174Z,9.50
2019-05-20T16:23:09.461Z,7.23
2019-05-20T16:25:35.599Z,10.37
2019-05-20T16:28:01.994Z,9.57
2019-05-20T16:30:28.351Z,7.67
2019-05-20T16:32:54.724Z,12.63
2019-05-20T16:35:20.963Z,10.77
2019-05-20T16:37:47.348Z,8.80
2019-05-20T16:40:14.088Z,9.87
2019-05-20T16:42:40.328Z,10.27
2019-05-20T16:45:11.604Z,9.23
2019-05-20T16:47:36.728Z,8.60
2019-05-20T16:50:06.846Z,9.23
2019-05-20T16:52:34.433Z,9.33
2019-05-20T16:55:00.689Z,9.30
2019-05-20T16:57:27.071Z,9.97
2019-05-20T16:59:54.719Z,9.27
2019-05-20T17:02:21.225Z,9.53
2019-05-20T17:04:48.882Z,7.23
2019-05-20T17:07:15.125Z,9.80
2019-05-20T17:09:41.611Z,9.73
2019-05-20T17:12:07.802Z,9.77
2019-05-20T17:14:34.152Z,9.50
2019-05-20T17:17:00.615Z,10.93
2019-05-20T17:19:27.069Z,11.60
2019-05-20T17:21:53.401Z,8.83
2019-05-20T17:24:19.688Z,10.63
2019-05-20T17:26:46.015Z,11.03
2019-05-20T17:29:12.270Z,9.30
2019-05-20T17:31:38.610Z,8.93
2019-05-20T17:34:04.852Z,9.50
2019-05-20T17:36:31.165Z,9.57
2019-05-20T17:38:57.718Z,10.10
2019-05-20T17:41:23.987Z,10.43
2019-05-20T17:43:50.232Z,9.03
2019-05-20T17:46:16.897Z,8.63
2019-05-20T17:48:43.286Z,7.83
2019-05-20T17:51:09.865Z,7.40
2019-05-20T17:53:36.126Z,6.70
2019-05-20T17:56:02.490Z,8.30
2019-05-20T17:58:28.723Z,8.87
2019-05-20T18:00:54.999Z,6.17
2019-05-20T18:03:21.283Z,6.63
2019-05-20T18:05:47.634Z,6.30
2019-05-20T18:08:13.974Z,6.20
2019-05-20T18:10:40.419Z,6.43
2019-05-20T18:13:06.863Z,7.40
2019-05-20T18:15:33.264Z,6.33
2019-05-20T18:18:00.069Z,7.27
2019-05-20T18:20:26.362Z,10.07
2019-05-20T18:22:52.784Z,8.90
2019-05-20T18:25:19.137Z,6.23
2019-05-20T18:27:46.558Z,9.13
2019-05-20T18:30:13.403Z,8.63
2019-05-20T18:32:39.666Z,8.37
2019-05-20T18:35:06.520Z,5.33
2019-05-20T18:37:32.869Z,7.27
2019-05-20T18:40:12.812Z,7.33
2019-05-20T18:42:27.190Z,6.37
2019-05-20T18:44:53.535Z,6.17
2019-05-20T18:47:19.918Z,5.67
2019-05-20T18:49:46.517Z,5.03
2019-05-20T18:52:13.922Z,3.90
2019-05-20T18:54:40.245Z,4.27
2019-05-20T18:57:06.548Z,5.27
2019-05-20T18:59:32.857Z,5.80
2019-05-20T19:02:05.234Z,5.97
2019-05-20T19:04:27.352Z,3.80
2019-05-20T19:06:53.876Z,5.13
2019-05-20T19:09:20.384Z,4.50
2019-05-20T19:11:46.728Z,4.50
2019-05-20T19:14:13.360Z,5.90
2019-05-20T19:16:39.571Z,4.27
2019-05-20T19:19:05.814Z,3.77
2019-05-20T19:21:32.079Z,4.73
2019-05-20T19:23:58.419Z,6.20
2019-05-20T19:26:25.566Z,5.13
2019-05-20T19:28:51.993Z,5.57
2019-05-20T19:31:18.323Z,3.50
2019-05-20T19:33:44.689Z,4.17
2019-05-20T19:36:11.018Z,4.67
2019-05-20T19:38:37.167Z,4.40
2019-05-20T19:41:03.666Z,5.73
2019-05-20T19:43:29.830Z,5.47
2019-05-20T19:45:56.167Z,4.57
2019-05-20T19:48:23.476Z,5.63
2019-05-20T19:50:49.843Z,5.50
2019-05-20T19:53:18.886Z,3.73
2019-05-20T19:55:45.296Z,4.37
2019-05-20T19:58:11.618Z,3.20
2019-05-20T20:00:38.883Z,4.70
2019-05-20T20:03:05.069Z,6.70
2019-05-20T20:05:31.426Z,4.80
2019-05-20T20:07:57.857Z,4.30
2019-05-20T20:10:24.707Z,5.37
2019-05-20T20:12:53.417Z,4.30
2019-05-20T20:15:19.845Z,4.70
2019-05-20T20:17:46.276Z,3.30
2019-05-20T20:20:12.613Z,2.90
2019-05-20T20:22:38.980Z,2.00
2019-05-20T20:25:05.486Z,2.63
2019-05-20T20:27:31.836Z,2.70
2019-05-20T20:29:58.675Z,1.80
2019-05-20T20:32:37.324Z,1.97
2019-05-20T20:34:55.939Z,2.07
2019-05-20T20:37:22.530Z,2.43
2019-05-20T20:39:48.935Z,2.30
2019-05-20T20:42:15.595Z,2.00
2019-05-20T20:44:41.964Z,1.33
2019-05-20T20:47:09.346Z,1.83
2019-05-20T20:49:35.765Z,2.50
2019-05-20T20:52:02.134Z,1.50
2019-05-20T20:54:28.446Z,1.20
2019-05-20T20:56:54.780Z,1.40
2019-05-20T20:59:24.726Z,2.43
2019-05-20T21:01:55.452Z,2.17
2019-05-20T21:04:21.330Z,1.77
2019-05-20T21:06:47.523Z,2.60
2019-05-20T21:09:13.999Z,3.53
2019-05-20T21:11:40.275Z,1.77
2019-05-20T21:14:07.302Z,2.40
2019-05-20T21:16:34.118Z,1.63
2019-05-20T21:19:00.643Z,2.73
2019-05-20T21:21:27.043Z,1.77
2019-05-20T21:23:59.818Z,2.70
2019-05-20T21:26:26.348Z,2.00
2019-05-20T21:28:52.618Z,2.60
2019-05-20T21:31:19.394Z,2.00
2019-05-20T21:33:45.643Z,2.20
2019-05-20T21:36:12.109Z,2.23
2019-05-20T21:38:39.351Z,3.00
2019-05-20T21:41:05.617Z,2.87
2019-05-20T21:43:31.781Z,2.00
2019-05-20T21:45:58.533Z,3.20
2019-05-20T21:48:24.834Z,3.03
2019-05-20T21:50:51.591Z,4.60
2019-05-20T21:53:17.760Z,2.27
2019-05-20T21:55:44.010Z,3.73
2019-05-20T21:58:10.152Z,4.17
2019-05-20T22:00:53.070Z,3.53
2019-05-20T22:03:24.662Z,4.37
2019-05-20T22:05:47.607Z,3.67
2019-05-20T22:08:14.252Z,3.70
2019-05-20T22:10:40.491Z,5.03
2019-05-20T22:13:06.845Z,4.17
2019-05-20T22:15:33.077Z,3.63
2019-05-20T22:17:59.556Z,3.87
2019-05-20T22:20:26.299Z,3.67
2019-05-20T22:23:10.784Z,3.60
2019-05-20T22:25:37.277Z,4.13
2019-05-20T22:28:03.526Z,4.17
2019-05-20T22:30:29.978Z,3.27
2019-05-20T22:32:56.240Z,3.50
2019-05-20T22:35:22.767Z,4.03
2019-05-20T22:37:48.997Z,3.50
2019-05-20T22:40:15.674Z,5.30
2019-05-20T22:42:41.918Z,3.60
2019-05-20T22:45:08.454Z,5.20
2019-05-20T22:47:34.705Z,3.43
2019-05-20T22:50:01.519Z,4.10
2019-05-20T22:52:27.879Z,3.43
2019-05-20T22:54:54.196Z,4.43
2019-05-20T22:57:20.898Z,2.97
2019-05-20T22:59:47.051Z,5.07
2019-05-20T23:02:13.286Z,3.57
2019-05-20T23:04:39.585Z,4.50
2019-05-20T23:07:05.822Z,4.93
2019-05-20T23:09:32.277Z,4.70
2019-05-20T23:11:58.566Z,4.40
2019-05-20T23:14:24.874Z,3.97
2019-05-20T23:16:51.215Z,5.33
2019-05-20T23:19:20.806Z,4.40
2019-05-20T23:21:47.208Z,4.63
2019-05-20T23:24:13.492Z,5.50
2019-05-20T23:26:39.861Z,4.77
2019-05-20T23:29:06.017Z,5.73
2019-05-20T23:31:32.352Z,3.83
2019-05-20T23:34:11.763Z,4.03
2019-05-20T23:36:26.683Z,5.10
2019-05-20T23:38:52.831Z,4.53
2019-05-20T23:41:19.073Z,3.70
2019-05-20T23:43:45.344Z,5.53
2019-05-20T23:46:11.636Z,4.27
2019-05-20T23:48:37.771Z,4.63
2019-05-20T23:51:04.163Z,4.73
2019-05-20T23:53:30.599Z,4.67
2019-05-20T23:55:56.838Z,4.10
2019-05-20T23:58:23.087Z,5.00
